sensor_id;sensor_type;location;lat;lon;timestamp;P1;durP1;ratioP1;P2;durP2;ratioP2
82850;SDS011;72609;45.768;4.884;2024-02-16T00:01:45;3.75;;;1.50;;
82850;SDS011;72609;45.768;4.884;2024-02-16T00:04:10;2.72;;;1.20;;
82850;SDS011;72609;45.768;4.884;2024-02-16T00:06:36;4.40;;;1.83;;
82850;SDS011;72609;45.768;4.884;2024-02-16T00:09:01;6.40;;;1.20;;
82850;SDS011;72609;45.768;4.884;2024-02-16T00:11:27;2.85;;;1.33;;
82850;SDS011;72609;45.768;4.884;2024-02-16T00:13:53;4.03;;;1.40;;
82850;SDS011;72609;45.768;4.884;2024-02-16T00:16:19;5.07;;;1.52;;
82850;SDS011;72609;45.768;4.884;2024-02-16T00:18:46;4.43;;;1.48;;
82850;SDS011;72609;45.768;4.884;2024-02-16T00:21:11;1.98;;;1.00;;
82850;SDS011;72609;45.768;4.884;2024-02-16T00:23:37;2.92;;;1.30;;
82850;SDS011;72609;45.768;4.884;2024-02-16T00:26:02;3.05;;;1.40;;
82850;SDS011;72609;45.768;4.884;2024-02-16T00:28:32;2.13;;;1.15;;
82850;SDS011;72609;45.768;4.884;2024-02-16T00:30:57;2.97;;;1.70;;
82850;SDS011;72609;45.768;4.884;2024-02-16T00:33:23;6.28;;;1.10;;
82850;SDS011;72609;45.768;4.884;2024-02-16T00:35:48;4.07;;;1.50;;
82850;SDS011;72609;45.768;4.884;2024-02-16T00:38:14;2.55;;;1.52;;
82850;SDS011;72609;45.768;4.884;2024-02-16T00:40:40;2.33;;;1.30;;
82850;SDS011;72609;45.768;4.884;2024-02-16T00:43:08;2.60;;;1.45;;
82850;SDS011;72609;45.768;4.884;2024-02-16T00:45:34;5.68;;;1.55;;
82850;SDS011;72609;45.768;4.884;2024-02-16T00:48:00;2.97;;;1.40;;
82850;SDS011;72609;45.768;4.884;2024-02-16T00:50:27;2.95;;;1.30;;
82850;SDS011;72609;45.768;4.884;2024-02-16T00:52:52;3.65;;;1.40;;
82850;SDS011;72609;45.768;4.884;2024-02-16T00:55:18;1.73;;;1.02;;
82850;SDS011;72609;45.768;4.884;2024-02-16T00:57:44;2.55;;;1.23;;
82850;SDS011;72609;45.768;4.884;2024-02-16T01:00:09;2.50;;;1.10;;
82850;SDS011;72609;45.768;4.884;2024-02-16T01:02:35;3.65;;;0.73;;
82850;SDS011;72609;45.768;4.884;2024-02-16T01:05:01;2.50;;;1.10;;
82850;SDS011;72609;45.768;4.884;2024-02-16T01:07:27;2.45;;;1.27;;
82850;SDS011;72609;45.768;4.884;2024-02-16T01:09:53;4.60;;;1.48;;
82850;SDS011;72609;45.768;4.884;2024-02-16T01:14:45;2.55;;;1.10;;
82850;SDS011;72609;45.768;4.884;2024-02-16T01:17:10;1.70;;;1.20;;
82850;SDS011;72609;45.768;4.884;2024-02-16T01:19:36;5.30;;;1.80;;
82850;SDS011;72609;45.768;4.884;2024-02-16T01:22:02;2.83;;;1.15;;
82850;SDS011;72609;45.768;4.884;2024-02-16T01:24:28;1.60;;;1.00;;
82850;SDS011;72609;45.768;4.884;2024-02-16T01:26:54;5.65;;;1.30;;
82850;SDS011;72609;45.768;4.884;2024-02-16T01:29:19;3.75;;;1.23;;
82850;SDS011;72609;45.768;4.884;2024-02-16T01:31:45;2.33;;;1.40;;
82850;SDS011;72609;45.768;4.884;2024-02-16T01:34:10;3.10;;;1.27;;
82850;SDS011;72609;45.768;4.884;2024-02-16T01:36:36;2.72;;;1.00;;
82850;SDS011;72609;45.768;4.884;2024-02-16T01:39:02;3.63;;;0.98;;
82850;SDS011;72609;45.768;4.884;2024-02-16T01:41:27;1.73;;;0.90;;
82850;SDS011;72609;45.768;4.884;2024-02-16T01:43:53;2.95;;;1.30;;
82850;SDS011;72609;45.768;4.884;2024-02-16T01:46:19;2.75;;;0.93;;
82850;SDS011;72609;45.768;4.884;2024-02-16T01:48:45;3.30;;;1.40;;
82850;SDS011;72609;45.768;4.884;2024-02-16T01:51:11;2.42;;;1.42;;
82850;SDS011;72609;45.768;4.884;2024-02-16T01:53:38;2.67;;;1.25;;
82850;SDS011;72609;45.768;4.884;2024-02-16T01:56:05;7.38;;;1.30;;
82850;SDS011;72609;45.768;4.884;2024-02-16T01:58:31;5.53;;;1.40;;
82850;SDS011;72609;45.768;4.884;2024-02-16T02:00:57;4.15;;;1.55;;
82850;SDS011;72609;45.768;4.884;2024-02-16T02:03:23;3.33;;;1.08;;
82850;SDS011;72609;45.768;4.884;2024-02-16T02:05:48;3.72;;;1.15;;
82850;SDS011;72609;45.768;4.884;2024-02-16T02:08:15;2.03;;;1.00;;
82850;SDS011;72609;45.768;4.884;2024-02-16T02:10:42;2.95;;;1.25;;
82850;SDS011;72609;45.768;4.884;2024-02-16T02:13:08;2.95;;;0.95;;
82850;SDS011;72609;45.768;4.884;2024-02-16T02:15:33;1.70;;;0.73;;
82850;SDS011;72609;45.768;4.884;2024-02-16T02:17:59;2.78;;;1.20;;
82850;SDS011;72609;45.768;4.884;2024-02-16T02:20:25;2.38;;;1.13;;
82850;SDS011;72609;45.768;4.884;2024-02-16T02:22:51;2.47;;;1.40;;
82850;SDS011;72609;45.768;4.884;2024-02-16T02:25:16;3.80;;;1.17;;
82850;SDS011;72609;45.768;4.884;2024-02-16T02:27:42;2.80;;;1.23;;
82850;SDS011;72609;45.768;4.884;2024-02-16T02:30:07;1.92;;;1.05;;
82850;SDS011;72609;45.768;4.884;2024-02-16T02:32:33;2.10;;;1.17;;
82850;SDS011;72609;45.768;4.884;2024-02-16T02:34:59;2.92;;;0.90;;
82850;SDS011;72609;45.768;4.884;2024-02-16T02:39:51;4.05;;;1.52;;
82850;SDS011;72609;45.768;4.884;2024-02-16T02:42:17;1.60;;;1.05;;
82850;SDS011;72609;45.768;4.884;2024-02-16T02:44:42;2.88;;;1.20;;
82850;SDS011;72609;45.768;4.884;2024-02-16T02:47:14;1.85;;;1.00;;
82850;SDS011;72609;45.768;4.884;2024-02-16T02:49:41;1.75;;;1.02;;
82850;SDS011;72609;45.768;4.884;2024-02-16T02:52:07;3.15;;;1.10;;
82850;SDS011;72609;45.768;4.884;2024-02-16T02:54:33;3.75;;;1.30;;
82850;SDS011;72609;45.768;4.884;2024-02-16T02:56:58;3.13;;;1.23;;
82850;SDS011;72609;45.768;4.884;2024-02-16T02:59:24;1.45;;;0.63;;
82850;SDS011;72609;45.768;4.884;2024-02-16T03:01:50;2.42;;;1.20;;
82850;SDS011;72609;45.768;4.884;2024-02-16T03:04:15;1.80;;;1.13;;
82850;SDS011;72609;45.768;4.884;2024-02-16T03:06:41;2.15;;;1.35;;
82850;SDS011;72609;45.768;4.884;2024-02-16T03:09:07;1.58;;;0.93;;
82850;SDS011;72609;45.768;4.884;2024-02-16T03:11:32;2.40;;;1.13;;
82850;SDS011;72609;45.768;4.884;2024-02-16T03:13:58;1.50;;;1.23;;
82850;SDS011;72609;45.768;4.884;2024-02-16T03:16:24;2.05;;;0.73;;
82850;SDS011;72609;45.768;4.884;2024-02-16T03:18:49;3.05;;;1.00;;
82850;SDS011;72609;45.768;4.884;2024-02-16T03:21:15;2.65;;;1.05;;
82850;SDS011;72609;45.768;4.884;2024-02-16T03:23:43;5.70;;;1.40;;
82850;SDS011;72609;45.768;4.884;2024-02-16T03:26:15;3.10;;;1.17;;
82850;SDS011;72609;45.768;4.884;2024-02-16T03:28:45;3.05;;;1.00;;
82850;SDS011;72609;45.768;4.884;2024-02-16T03:31:23;2.50;;;1.00;;
82850;SDS011;72609;45.768;4.884;2024-02-16T03:33:50;1.63;;;0.85;;
82850;SDS011;72609;45.768;4.884;2024-02-16T03:36:16;3.33;;;1.00;;
82850;SDS011;72609;45.768;4.884;2024-02-16T03:38:44;2.90;;;1.63;;
82850;SDS011;72609;45.768;4.884;2024-02-16T03:41:13;2.55;;;1.08;;
82850;SDS011;72609;45.768;4.884;2024-02-16T03:43:41;4.55;;;1.30;;
82850;SDS011;72609;45.768;4.884;2024-02-16T03:48:33;3.17;;;1.27;;
82850;SDS011;72609;45.768;4.884;2024-02-16T03:50:59;1.85;;;0.82;;
82850;SDS011;72609;45.768;4.884;2024-02-16T03:53:25;2.45;;;1.08;;
82850;SDS011;72609;45.768;4.884;2024-02-16T03:55:51;3.58;;;1.73;;
82850;SDS011;72609;45.768;4.884;2024-02-16T03:58:16;3.42;;;1.30;;
82850;SDS011;72609;45.768;4.884;2024-02-16T04:00:42;3.65;;;1.20;;
82850;SDS011;72609;45.768;4.884;2024-02-16T04:03:08;2.50;;;1.15;;
82850;SDS011;72609;45.768;4.884;2024-02-16T04:05:34;5.63;;;1.40;;
82850;SDS011;72609;45.768;4.884;2024-02-16T04:08:00;3.65;;;1.23;;
82850;SDS011;72609;45.768;4.884;2024-02-16T04:10:28;2.45;;;1.05;;
82850;SDS011;72609;45.768;4.884;2024-02-16T04:12:54;4.30;;;1.48;;
82850;SDS011;72609;45.768;4.884;2024-02-16T04:15:20;3.08;;;1.45;;
82850;SDS011;72609;45.768;4.884;2024-02-16T04:17:45;3.72;;;1.30;;
82850;SDS011;72609;45.768;4.884;2024-02-16T04:20:11;4.95;;;1.38;;
82850;SDS011;72609;45.768;4.884;2024-02-16T04:22:36;3.25;;;1.27;;
82850;SDS011;72609;45.768;4.884;2024-02-16T04:25:03;3.08;;;1.30;;
82850;SDS011;72609;45.768;4.884;2024-02-16T04:29:55;2.78;;;1.25;;
82850;SDS011;72609;45.768;4.884;2024-02-16T04:32:20;2.33;;;1.05;;
82850;SDS011;72609;45.768;4.884;2024-02-16T04:34:46;2.15;;;0.90;;
82850;SDS011;72609;45.768;4.884;2024-02-16T04:37:14;1.70;;;1.05;;
82850;SDS011;72609;45.768;4.884;2024-02-16T04:39:40;4.25;;;1.48;;
82850;SDS011;72609;45.768;4.884;2024-02-16T04:42:05;1.95;;;1.15;;
82850;SDS011;72609;45.768;4.884;2024-02-16T04:44:31;3.30;;;1.38;;
82850;SDS011;72609;45.768;4.884;2024-02-16T04:46:56;3.40;;;1.45;;
82850;SDS011;72609;45.768;4.884;2024-02-16T04:49:22;3.40;;;1.08;;
82850;SDS011;72609;45.768;4.884;2024-02-16T04:51:48;3.47;;;1.23;;
82850;SDS011;72609;45.768;4.884;2024-02-16T04:54:14;3.40;;;1.48;;
82850;SDS011;72609;45.768;4.884;2024-02-16T04:56:39;4.30;;;2.38;;
82850;SDS011;72609;45.768;4.884;2024-02-16T04:59:05;3.10;;;1.42;;
82850;SDS011;72609;45.768;4.884;2024-02-16T05:01:30;2.70;;;1.42;;
82850;SDS011;72609;45.768;4.884;2024-02-16T05:03:57;3.38;;;1.35;;
82850;SDS011;72609;45.768;4.884;2024-02-16T05:06:24;3.42;;;1.50;;
82850;SDS011;72609;45.768;4.884;2024-02-16T05:08:50;2.92;;;1.50;;
82850;SDS011;72609;45.768;4.884;2024-02-16T05:11:16;3.25;;;1.52;;
82850;SDS011;72609;45.768;4.884;2024-02-16T05:13:41;3.90;;;1.42;;
82850;SDS011;72609;45.768;4.884;2024-02-16T05:16:11;2.88;;;1.30;;
82850;SDS011;72609;45.768;4.884;2024-02-16T05:18:37;9.93;;;2.10;;
82850;SDS011;72609;45.768;4.884;2024-02-16T05:21:03;5.60;;;1.70;;
82850;SDS011;72609;45.768;4.884;2024-02-16T05:23:28;2.72;;;1.40;;
82850;SDS011;72609;45.768;4.884;2024-02-16T05:25:54;6.13;;;1.75;;
82850;SDS011;72609;45.768;4.884;2024-02-16T05:28:21;4.78;;;1.55;;
82850;SDS011;72609;45.768;4.884;2024-02-16T05:30:46;6.72;;;1.95;;
82850;SDS011;72609;45.768;4.884;2024-02-16T05:33:12;5.25;;;1.67;;
82850;SDS011;72609;45.768;4.884;2024-02-16T05:35:39;5.68;;;1.95;;
82850;SDS011;72609;45.768;4.884;2024-02-16T05:38:08;4.90;;;2.13;;
82850;SDS011;72609;45.768;4.884;2024-02-16T05:40:46;4.38;;;1.83;;
82850;SDS011;72609;45.768;4.884;2024-02-16T05:43:22;4.25;;;1.77;;
82850;SDS011;72609;45.768;4.884;2024-02-16T05:45:48;5.75;;;2.58;;
82850;SDS011;72609;45.768;4.884;2024-02-16T05:48:14;5.43;;;2.30;;
82850;SDS011;72609;45.768;4.884;2024-02-16T05:50:40;4.10;;;1.98;;
82850;SDS011;72609;45.768;4.884;2024-02-16T05:53:06;4.78;;;1.73;;
82850;SDS011;72609;45.768;4.884;2024-02-16T05:55:32;4.53;;;2.60;;
82850;SDS011;72609;45.768;4.884;2024-02-16T05:57:57;4.75;;;1.98;;
82850;SDS011;72609;45.768;4.884;2024-02-16T06:00:23;2.92;;;1.40;;
82850;SDS011;72609;45.768;4.884;2024-02-16T06:02:48;5.55;;;2.42;;
82850;SDS011;72609;45.768;4.884;2024-02-16T06:05:14;6.05;;;2.47;;
82850;SDS011;72609;45.768;4.884;2024-02-16T06:07:40;8.27;;;2.55;;
82850;SDS011;72609;45.768;4.884;2024-02-16T06:10:05;4.13;;;2.40;;
82850;SDS011;72609;45.768;4.884;2024-02-16T06:12:38;3.83;;;1.98;;
82850;SDS011;72609;45.768;4.884;2024-02-16T06:15:05;5.82;;;2.30;;
82850;SDS011;72609;45.768;4.884;2024-02-16T06:17:31;6.70;;;2.22;;
82850;SDS011;72609;45.768;4.884;2024-02-16T06:19:56;5.85;;;2.58;;
82850;SDS011;72609;45.768;4.884;2024-02-16T06:22:22;6.32;;;2.20;;
82850;SDS011;72609;45.768;4.884;2024-02-16T06:24:47;5.68;;;2.42;;
82850;SDS011;72609;45.768;4.884;2024-02-16T06:27:13;4.40;;;2.13;;
82850;SDS011;72609;45.768;4.884;2024-02-16T06:29:38;5.88;;;2.60;;
82850;SDS011;72609;45.768;4.884;2024-02-16T06:32:05;4.50;;;2.40;;
82850;SDS011;72609;45.768;4.884;2024-02-16T06:34:31;5.95;;;2.40;;
82850;SDS011;72609;45.768;4.884;2024-02-16T06:36:57;7.80;;;2.75;;
82850;SDS011;72609;45.768;4.884;2024-02-16T06:39:22;7.28;;;2.53;;
82850;SDS011;72609;45.768;4.884;2024-02-16T06:41:48;3.60;;;2.17;;
82850;SDS011;72609;45.768;4.884;2024-02-16T06:44:16;3.75;;;1.90;;
82850;SDS011;72609;45.768;4.884;2024-02-16T06:46:42;5.90;;;1.88;;
82850;SDS011;72609;45.768;4.884;2024-02-16T06:49:08;4.85;;;1.55;;
82850;SDS011;72609;45.768;4.884;2024-02-16T06:51:35;9.85;;;1.88;;
82850;SDS011;72609;45.768;4.884;2024-02-16T06:54:02;3.25;;;1.88;;
82850;SDS011;72609;45.768;4.884;2024-02-16T06:56:28;3.35;;;1.75;;
82850;SDS011;72609;45.768;4.884;2024-02-16T06:58:54;6.53;;;1.80;;
82850;SDS011;72609;45.768;4.884;2024-02-16T07:01:19;4.18;;;2.42;;
82850;SDS011;72609;45.768;4.884;2024-02-16T07:03:45;6.13;;;2.55;;
82850;SDS011;72609;45.768;4.884;2024-02-16T07:06:11;9.73;;;2.03;;
82850;SDS011;72609;45.768;4.884;2024-02-16T07:08:42;6.63;;;1.88;;
82850;SDS011;72609;45.768;4.884;2024-02-16T07:11:09;4.63;;;1.88;;
82850;SDS011;72609;45.768;4.884;2024-02-16T07:13:38;7.90;;;2.63;;
82850;SDS011;72609;45.768;4.884;2024-02-16T07:16:04;11.18;;;3.00;;
82850;SDS011;72609;45.768;4.884;2024-02-16T07:18:34;17.02;;;3.97;;
82850;SDS011;72609;45.768;4.884;2024-02-16T07:21:00;6.03;;;2.28;;
82850;SDS011;72609;45.768;4.884;2024-02-16T07:25:51;7.78;;;2.83;;
82850;SDS011;72609;45.768;4.884;2024-02-16T07:28:21;13.20;;;3.13;;
82850;SDS011;72609;45.768;4.884;2024-02-16T07:30:47;11.13;;;3.90;;
82850;SDS011;72609;45.768;4.884;2024-02-16T07:33:13;9.55;;;2.60;;
82850;SDS011;72609;45.768;4.884;2024-02-16T07:35:38;13.77;;;3.20;;
82850;SDS011;72609;45.768;4.884;2024-02-16T07:38:04;9.48;;;2.80;;
82850;SDS011;72609;45.768;4.884;2024-02-16T07:40:30;6.47;;;2.92;;
82850;SDS011;72609;45.768;4.884;2024-02-16T07:42:56;11.98;;;4.88;;
82850;SDS011;72609;45.768;4.884;2024-02-16T07:45:21;11.43;;;4.32;;
82850;SDS011;72609;45.768;4.884;2024-02-16T07:47:47;11.32;;;4.45;;
82850;SDS011;72609;45.768;4.884;2024-02-16T07:50:13;8.25;;;3.83;;
82850;SDS011;72609;45.768;4.884;2024-02-16T07:52:39;8.68;;;3.40;;
82850;SDS011;72609;45.768;4.884;2024-02-16T07:55:07;13.13;;;4.82;;
82850;SDS011;72609;45.768;4.884;2024-02-16T07:57:33;10.45;;;3.17;;
82850;SDS011;72609;45.768;4.884;2024-02-16T07:59:59;10.65;;;3.72;;
82850;SDS011;72609;45.768;4.884;2024-02-16T08:02:25;7.93;;;3.70;;
82850;SDS011;72609;45.768;4.884;2024-02-16T08:04:50;12.80;;;5.70;;
82850;SDS011;72609;45.768;4.884;2024-02-16T08:07:17;10.95;;;4.18;;
82850;SDS011;72609;45.768;4.884;2024-02-16T08:09:48;8.05;;;3.40;;
82850;SDS011;72609;45.768;4.884;2024-02-16T08:12:14;7.00;;;4.00;;
82850;SDS011;72609;45.768;4.884;2024-02-16T08:14:40;11.70;;;4.32;;
82850;SDS011;72609;45.768;4.884;2024-02-16T08:17:06;7.80;;;3.33;;
82850;SDS011;72609;45.768;4.884;2024-02-16T08:19:33;6.20;;;3.53;;
82850;SDS011;72609;45.768;4.884;2024-02-16T08:22:03;7.47;;;3.13;;
82850;SDS011;72609;45.768;4.884;2024-02-16T08:24:38;10.30;;;3.72;;
82850;SDS011;72609;45.768;4.884;2024-02-16T08:27:04;6.32;;;3.00;;
82850;SDS011;72609;45.768;4.884;2024-02-16T08:29:30;10.15;;;3.35;;
82850;SDS011;72609;45.768;4.884;2024-02-16T08:31:56;6.60;;;3.20;;
82850;SDS011;72609;45.768;4.884;2024-02-16T08:34:21;10.07;;;3.30;;
82850;SDS011;72609;45.768;4.884;2024-02-16T08:36:47;8.20;;;3.78;;
82850;SDS011;72609;45.768;4.884;2024-02-16T08:39:15;9.40;;;2.95;;
82850;SDS011;72609;45.768;4.884;2024-02-16T08:41:41;9.55;;;3.58;;
82850;SDS011;72609;45.768;4.884;2024-02-16T08:44:09;10.98;;;4.03;;
82850;SDS011;72609;45.768;4.884;2024-02-16T08:46:35;8.77;;;3.95;;
82850;SDS011;72609;45.768;4.884;2024-02-16T08:51:27;7.25;;;2.95;;
82850;SDS011;72609;45.768;4.884;2024-02-16T08:53:53;10.80;;;4.13;;
82850;SDS011;72609;45.768;4.884;2024-02-16T08:56:19;11.25;;;4.00;;
82850;SDS011;72609;45.768;4.884;2024-02-16T08:58:44;13.60;;;3.90;;
82850;SDS011;72609;45.768;4.884;2024-02-16T09:01:10;12.57;;;3.65;;
82850;SDS011;72609;45.768;4.884;2024-02-16T09:03:36;9.77;;;3.45;;
82850;SDS011;72609;45.768;4.884;2024-02-16T09:06:04;8.02;;;3.22;;
82850;SDS011;72609;45.768;4.884;2024-02-16T09:08:30;6.57;;;3.55;;
82850;SDS011;72609;45.768;4.884;2024-02-16T09:11:04;7.07;;;3.15;;
82850;SDS011;72609;45.768;4.884;2024-02-16T09:13:34;10.02;;;3.08;;
82850;SDS011;72609;45.768;4.884;2024-02-16T09:16:01;10.18;;;3.88;;
82850;SDS011;72609;45.768;4.884;2024-02-16T09:18:28;3.95;;;2.05;;
82850;SDS011;72609;45.768;4.884;2024-02-16T09:20:54;7.70;;;2.95;;
82850;SDS011;72609;45.768;4.884;2024-02-16T09:23:20;4.32;;;2.92;;
82850;SDS011;72609;45.768;4.884;2024-02-16T09:25:46;5.85;;;2.58;;
82850;SDS011;72609;45.768;4.884;2024-02-16T09:28:11;6.95;;;2.22;;
82850;SDS011;72609;45.768;4.884;2024-02-16T09:30:38;4.53;;;2.33;;
82850;SDS011;72609;45.768;4.884;2024-02-16T09:33:03;6.15;;;2.50;;
82850;SDS011;72609;45.768;4.884;2024-02-16T09:35:29;8.52;;;3.10;;
82850;SDS011;72609;45.768;4.884;2024-02-16T09:37:56;7.40;;;2.97;;
82850;SDS011;72609;45.768;4.884;2024-02-16T09:40:22;6.57;;;2.53;;
82850;SDS011;72609;45.768;4.884;2024-02-16T09:45:17;7.10;;;2.55;;
82850;SDS011;72609;45.768;4.884;2024-02-16T09:47:43;14.18;;;3.00;;
82850;SDS011;72609;45.768;4.884;2024-02-16T09:50:11;7.05;;;3.25;;
82850;SDS011;72609;45.768;4.884;2024-02-16T09:52:37;6.43;;;3.03;;
82850;SDS011;72609;45.768;4.884;2024-02-16T09:55:04;10.68;;;3.42;;
82850;SDS011;72609;45.768;4.884;2024-02-16T09:57:32;7.60;;;2.90;;
82850;SDS011;72609;45.768;4.884;2024-02-16T09:59:58;9.20;;;2.70;;
82850;SDS011;72609;45.768;4.884;2024-02-16T10:02:24;8.48;;;3.08;;
82850;SDS011;72609;45.768;4.884;2024-02-16T10:04:49;5.95;;;2.90;;
82850;SDS011;72609;45.768;4.884;2024-02-16T10:07:15;10.05;;;3.22;;
82850;SDS011;72609;45.768;4.884;2024-02-16T10:09:41;7.05;;;2.72;;
82850;SDS011;72609;45.768;4.884;2024-02-16T10:12:06;7.30;;;2.55;;
82850;SDS011;72609;45.768;4.884;2024-02-16T10:14:32;4.20;;;2.47;;
82850;SDS011;72609;45.768;4.884;2024-02-16T10:17:01;4.70;;;2.35;;
82850;SDS011;72609;45.768;4.884;2024-02-16T10:19:28;6.22;;;2.72;;
82850;SDS011;72609;45.768;4.884;2024-02-16T10:22:07;11.63;;;3.30;;
82850;SDS011;72609;45.768;4.884;2024-02-16T10:24:34;6.72;;;2.80;;
82850;SDS011;72609;45.768;4.884;2024-02-16T10:27:00;9.95;;;3.50;;
82850;SDS011;72609;45.768;4.884;2024-02-16T10:29:26;6.07;;;3.13;;
82850;SDS011;72609;45.768;4.884;2024-02-16T10:31:52;5.80;;;2.90;;
82850;SDS011;72609;45.768;4.884;2024-02-16T10:34:18;5.47;;;3.17;;
82850;SDS011;72609;45.768;4.884;2024-02-16T10:36:46;7.75;;;2.63;;
82850;SDS011;72609;45.768;4.884;2024-02-16T10:39:12;8.23;;;3.45;;
82850;SDS011;72609;45.768;4.884;2024-02-16T10:41:40;10.88;;;3.63;;
82850;SDS011;72609;45.768;4.884;2024-02-16T10:44:06;5.97;;;2.95;;
82850;SDS011;72609;45.768;4.884;2024-02-16T10:46:32;9.25;;;3.08;;
82850;SDS011;72609;45.768;4.884;2024-02-16T10:48:58;9.73;;;3.40;;
82850;SDS011;72609;45.768;4.884;2024-02-16T10:51:40;8.73;;;3.80;;
82850;SDS011;72609;45.768;4.884;2024-02-16T10:54:10;10.77;;;4.22;;
82850;SDS011;72609;45.768;4.884;2024-02-16T10:56:38;10.10;;;3.65;;
82850;SDS011;72609;45.768;4.884;2024-02-16T10:59:05;10.93;;;3.40;;
82850;SDS011;72609;45.768;4.884;2024-02-16T11:01:37;11.25;;;3.60;;
82850;SDS011;72609;45.768;4.884;2024-02-16T11:04:03;7.03;;;3.40;;
82850;SDS011;72609;45.768;4.884;2024-02-16T11:06:30;10.13;;;4.22;;
82850;SDS011;72609;45.768;4.884;2024-02-16T11:09:01;10.77;;;3.45;;
82850;SDS011;72609;45.768;4.884;2024-02-16T11:11:32;11.80;;;4.15;;
82850;SDS011;72609;45.768;4.884;2024-02-16T11:14:01;12.50;;;4.13;;
82850;SDS011;72609;45.768;4.884;2024-02-16T11:18:52;10.40;;;3.30;;
82850;SDS011;72609;45.768;4.884;2024-02-16T11:21:18;7.20;;;3.00;;
82850;SDS011;72609;45.768;4.884;2024-02-16T11:23:44;6.53;;;2.78;;
82850;SDS011;72609;45.768;4.884;2024-02-16T11:26:10;8.25;;;2.75;;
82850;SDS011;72609;45.768;4.884;2024-02-16T11:28:37;5.38;;;2.78;;
82850;SDS011;72609;45.768;4.884;2024-02-16T11:31:04;7.43;;;3.22;;
82850;SDS011;72609;45.768;4.884;2024-02-16T11:33:32;4.43;;;2.70;;
82850;SDS011;72609;45.768;4.884;2024-02-16T11:35:58;5.22;;;2.45;;
82850;SDS011;72609;45.768;4.884;2024-02-16T11:38:25;5.80;;;2.90;;
82850;SDS011;72609;45.768;4.884;2024-02-16T11:40:58;6.65;;;3.10;;
82850;SDS011;72609;45.768;4.884;2024-02-16T11:43:28;7.10;;;3.15;;
82850;SDS011;72609;45.768;4.884;2024-02-16T11:45:54;5.75;;;2.17;;
82850;SDS011;72609;45.768;4.884;2024-02-16T11:50:58;9.90;;;3.13;;
82850;SDS011;72609;45.768;4.884;2024-02-16T11:53:25;5.47;;;3.15;;
82850;SDS011;72609;45.768;4.884;2024-02-16T11:55:50;8.68;;;3.65;;
82850;SDS011;72609;45.768;4.884;2024-02-16T11:58:17;6.80;;;3.53;;
82850;SDS011;72609;45.768;4.884;2024-02-16T12:00:46;6.65;;;3.60;;
82850;SDS011;72609;45.768;4.884;2024-02-16T12:03:17;7.30;;;2.80;;
82850;SDS011;72609;45.768;4.884;2024-02-16T12:05:53;8.15;;;2.72;;
82850;SDS011;72609;45.768;4.884;2024-02-16T12:08:20;3.90;;;2.47;;
82850;SDS011;72609;45.768;4.884;2024-02-16T12:13:15;15.93;;;3.20;;
82850;SDS011;72609;45.768;4.884;2024-02-16T12:15:43;4.97;;;2.35;;
82850;SDS011;72609;45.768;4.884;2024-02-16T12:18:09;7.20;;;3.33;;
82850;SDS011;72609;45.768;4.884;2024-02-16T12:20:35;6.47;;;2.90;;
82850;SDS011;72609;45.768;4.884;2024-02-16T12:23:10;4.25;;;2.17;;
82850;SDS011;72609;45.768;4.884;2024-02-16T12:25:36;6.20;;;2.22;;
82850;SDS011;72609;45.768;4.884;2024-02-16T12:28:02;5.70;;;3.00;;
82850;SDS011;72609;45.768;4.884;2024-02-16T12:30:28;5.78;;;2.60;;
82850;SDS011;72609;45.768;4.884;2024-02-16T12:32:53;5.35;;;2.72;;
82850;SDS011;72609;45.768;4.884;2024-02-16T12:35:19;8.60;;;2.47;;
82850;SDS011;72609;45.768;4.884;2024-02-16T12:37:45;7.15;;;3.17;;
82850;SDS011;72609;45.768;4.884;2024-02-16T12:40:10;5.00;;;3.03;;
82850;SDS011;72609;45.768;4.884;2024-02-16T12:42:36;5.18;;;2.70;;
82850;SDS011;72609;45.768;4.884;2024-02-16T12:45:03;5.97;;;3.13;;
82850;SDS011;72609;45.768;4.884;2024-02-16T12:47:28;9.38;;;2.70;;
82850;SDS011;72609;45.768;4.884;2024-02-16T12:49:55;4.38;;;2.40;;
82850;SDS011;72609;45.768;4.884;2024-02-16T12:52:22;7.35;;;2.30;;
82850;SDS011;72609;45.768;4.884;2024-02-16T12:54:48;4.18;;;2.75;;
82850;SDS011;72609;45.768;4.884;2024-02-16T12:57:14;5.97;;;2.20;;
82850;SDS011;72609;45.768;4.884;2024-02-16T12:59:39;7.47;;;2.60;;
82850;SDS011;72609;45.768;4.884;2024-02-16T13:02:05;7.90;;;2.58;;
82850;SDS011;72609;45.768;4.884;2024-02-16T13:04:30;6.82;;;2.15;;
82850;SDS011;72609;45.768;4.884;2024-02-16T13:06:57;3.38;;;2.20;;
82850;SDS011;72609;45.768;4.884;2024-02-16T13:09:23;3.60;;;2.05;;
82850;SDS011;72609;45.768;4.884;2024-02-16T13:11:48;8.27;;;3.40;;
82850;SDS011;72609;45.768;4.884;2024-02-16T13:14:19;4.82;;;2.17;;
82850;SDS011;72609;45.768;4.884;2024-02-16T13:16:47;7.20;;;3.50;;
82850;SDS011;72609;45.768;4.884;2024-02-16T13:19:16;6.40;;;2.75;;
82850;SDS011;72609;45.768;4.884;2024-02-16T13:21:43;7.20;;;2.40;;
82850;SDS011;72609;45.768;4.884;2024-02-16T13:24:09;3.55;;;1.92;;
82850;SDS011;72609;45.768;4.884;2024-02-16T13:26:35;7.80;;;2.72;;
82850;SDS011;72609;45.768;4.884;2024-02-16T13:29:00;8.07;;;2.92;;
82850;SDS011;72609;45.768;4.884;2024-02-16T13:31:26;8.18;;;2.95;;
82850;SDS011;72609;45.768;4.884;2024-02-16T13:33:52;8.63;;;2.22;;
82850;SDS011;72609;45.768;4.884;2024-02-16T13:36:18;5.78;;;2.40;;
82850;SDS011;72609;45.768;4.884;2024-02-16T13:38:44;4.05;;;2.15;;
82850;SDS011;72609;45.768;4.884;2024-02-16T13:41:10;4.43;;;1.63;;
82850;SDS011;72609;45.768;4.884;2024-02-16T13:43:35;5.10;;;1.60;;
82850;SDS011;72609;45.768;4.884;2024-02-16T13:46:01;6.70;;;1.70;;
82850;SDS011;72609;45.768;4.884;2024-02-16T13:48:27;6.43;;;1.60;;
82850;SDS011;72609;45.768;4.884;2024-02-16T13:50:54;6.70;;;1.73;;
82850;SDS011;72609;45.768;4.884;2024-02-16T13:53:20;3.45;;;1.20;;
82850;SDS011;72609;45.768;4.884;2024-02-16T13:55:48;7.35;;;1.55;;
82850;SDS011;72609;45.768;4.884;2024-02-16T13:58:14;5.28;;;1.65;;
82850;SDS011;72609;45.768;4.884;2024-02-16T14:00:40;4.22;;;2.00;;
82850;SDS011;72609;45.768;4.884;2024-02-16T14:03:09;7.65;;;1.98;;
82850;SDS011;72609;45.768;4.884;2024-02-16T14:05:39;2.90;;;1.08;;
82850;SDS011;72609;45.768;4.884;2024-02-16T14:08:06;3.97;;;1.48;;
82850;SDS011;72609;45.768;4.884;2024-02-16T14:10:34;5.32;;;2.35;;
82850;SDS011;72609;45.768;4.884;2024-02-16T14:13:00;4.10;;;2.33;;
82850;SDS011;72609;45.768;4.884;2024-02-16T14:15:26;4.28;;;1.95;;
82850;SDS011;72609;45.768;4.884;2024-02-16T14:17:51;4.25;;;2.03;;
82850;SDS011;72609;45.768;4.884;2024-02-16T14:20:17;2.97;;;1.30;;
82850;SDS011;72609;45.768;4.884;2024-02-16T14:22:43;3.03;;;1.35;;
82850;SDS011;72609;45.768;4.884;2024-02-16T14:25:10;3.60;;;1.73;;
82850;SDS011;72609;45.768;4.884;2024-02-16T14:27:36;4.43;;;1.65;;
82850;SDS011;72609;45.768;4.884;2024-02-16T14:30:04;4.93;;;1.55;;
82850;SDS011;72609;45.768;4.884;2024-02-16T14:32:30;3.63;;;1.45;;
82850;SDS011;72609;45.768;4.884;2024-02-16T14:34:56;5.55;;;1.58;;
82850;SDS011;72609;45.768;4.884;2024-02-16T14:37:22;2.97;;;1.10;;
82850;SDS011;72609;45.768;4.884;2024-02-16T14:39:47;4.30;;;1.30;;
82850;SDS011;72609;45.768;4.884;2024-02-16T14:42:13;5.53;;;1.38;;
82850;SDS011;72609;45.768;4.884;2024-02-16T14:44:39;9.40;;;1.33;;
82850;SDS011;72609;45.768;4.884;2024-02-16T14:47:05;8.18;;;1.88;;
82850;SDS011;72609;45.768;4.884;2024-02-16T14:49:31;3.42;;;1.20;;
82850;SDS011;72609;45.768;4.884;2024-02-16T14:51:56;3.47;;;1.38;;
82850;SDS011;72609;45.768;4.884;2024-02-16T14:54:22;3.30;;;1.50;;
82850;SDS011;72609;45.768;4.884;2024-02-16T14:56:51;3.33;;;1.20;;
82850;SDS011;72609;45.768;4.884;2024-02-16T14:59:20;3.58;;;1.50;;
82850;SDS011;72609;45.768;4.884;2024-02-16T15:01:46;4.05;;;1.92;;
82850;SDS011;72609;45.768;4.884;2024-02-16T15:04:11;4.20;;;1.23;;
82850;SDS011;72609;45.768;4.884;2024-02-16T15:06:37;2.65;;;1.35;;